sensor_id;sensor_type;location;lat;lon;timestamp;pressure;altitude;pressure_sealevel;temperature;humidity
68580;BME280;55555;52.136;5.424;2022-12-11T00:00:51;101380.56;;;0.78;100.00
68580;BME280;55555;52.136;5.424;2022-12-11T00:03:18;101376.25;;;0.80;100.00
68580;BME280;55555;52.136;5.424;2022-12-11T00:05:45;101379.75;;;0.81;100.00
68580;BME280;55555;52.136;5.424;2022-12-11T00:08:14;101373.66;;;0.83;100.00
68580;BME280;55555;52.136;5.424;2022-12-11T00:10:48;101375.38;;;0.81;100.00
68580;BME280;55555;52.136;5.424;2022-12-11T00:13:15;101373.66;;;0.82;100.00
68580;BME280;55555;52.136;5.424;2022-12-11T00:15:42;101378.00;;;0.81;100.00
68580;BME280;55555;52.136;5.424;2022-12-11T00:18:12;101377.16;;;0.84;100.00
68580;BME280;55555;52.136;5.424;2022-12-11T00:20:40;101372.81;;;0.84;100.00
68580;BME280;55555;52.136;5.424;2022-12-11T00:23:07;101381.59;;;0.86;100.00
68580;BME280;55555;52.136;5.424;2022-12-11T00:25:34;101374.56;;;0.85;100.00
68580;BME280;55555;52.136;5.424;2022-12-11T00:28:06;101371.09;;;0.86;100.00
68580;BME280;55555;52.136;5.424;2022-12-11T00:30:33;101378.06;;;0.87;100.00
68580;BME280;55555;52.136;5.424;2022-12-11T00:33:00;101377.19;;;0.87;100.00
68580;BME280;55555;52.136;5.424;2022-12-11T00:35:27;101376.34;;;0.89;100.00
68580;BME280;55555;52.136;5.424;2022-12-11T00:37:54;101375.47;;;0.89;100.00
68580;BME280;55555;52.136;5.424;2022-12-11T00:40:21;101373.75;;;0.89;100.00
68580;BME280;55555;52.136;5.424;2022-12-11T00:42:48;101370.25;;;0.89;100.00
68580;BME280;55555;52.136;5.424;2022-12-11T00:45:15;101368.50;;;0.89;100.00
68580;BME280;55555;52.136;5.424;2022-12-11T00:47:42;101367.66;;;0.90;100.00
68580;BME280;55555;52.136;5.424;2022-12-11T00:50:09;101367.66;;;0.90;100.00
68580;BME280;55555;52.136;5.424;2022-12-11T00:52:37;101368.53;;;0.91;100.00
68580;BME280;55555;52.136;5.424;2022-12-11T00:55:06;101352.81;;;0.91;100.00
68580;BME280;55555;52.136;5.424;2022-12-11T00:57:34;101351.97;;;0.92;100.00
68580;BME280;55555;52.136;5.424;2022-12-11T01:00:03;101355.47;;;0.92;100.00
68580;BME280;55555;52.136;5.424;2022-12-11T01:02:33;101355.47;;;0.92;100.00
68580;BME280;55555;52.136;5.424;2022-12-11T01:05:00;101352.88;;;0.94;100.00
68580;BME280;55555;52.136;5.424;2022-12-11T01:07:27;101356.34;;;0.93;100.00
68580;BME280;55555;52.136;5.424;2022-12-11T01:09:54;101354.63;;;0.95;100.00
68580;BME280;55555;52.136;5.424;2022-12-11T01:12:40;101357.25;;;0.95;100.00
68580;BME280;55555;52.136;5.424;2022-12-11T01:15:07;101353.78;;;0.96;100.00
68580;BME280;55555;52.136;5.424;2022-12-11T01:17:35;101351.19;;;0.97;100.00
68580;BME280;55555;52.136;5.424;2022-12-11T01:20:03;101350.28;;;0.97;100.00
68580;BME280;55555;52.136;5.424;2022-12-11T01:22:31;101359.03;;;0.97;100.00
68580;BME280;55555;52.136;5.424;2022-12-11T01:24:58;101351.16;;;0.99;100.00
68580;BME280;55555;52.136;5.424;2022-12-11T01:27:25;101350.31;;;1.00;100.00
68580;BME280;55555;52.136;5.424;2022-12-11T01:29:52;101359.06;;;1.00;100.00
68580;BME280;55555;52.136;5.424;2022-12-11T01:32:19;101357.34;;;1.02;100.00
68580;BME280;55555;52.136;5.424;2022-12-11T01:34:47;101363.47;;;1.03;100.00
68580;BME280;55555;52.136;5.424;2022-12-11T01:37:14;101356.47;;;1.03;100.00
68580;BME280;55555;52.136;5.424;2022-12-11T01:39:41;101364.34;;;1.03;100.00
68580;BME280;55555;52.136;5.424;2022-12-11T01:42:15;101363.47;;;1.03;100.00
68580;BME280;55555;52.136;5.424;2022-12-11T01:47:10;101357.34;;;1.04;100.00
68580;BME280;55555;52.136;5.424;2022-12-11T01:49:39;101361.75;;;1.05;100.00
68580;BME280;55555;52.136;5.424;2022-12-11T01:52:11;101362.66;;;1.07;100.00
68580;BME280;55555;52.136;5.424;2022-12-11T01:54:42;101360.91;;;1.07;100.00
68580;BME280;55555;52.136;5.424;2022-12-11T01:57:10;101359.16;;;1.09;100.00
68580;BME280;55555;52.136;5.424;2022-12-11T01:59:42;101356.56;;;1.08;100.00
68580;BME280;55555;52.136;5.424;2022-12-11T02:02:27;101355.66;;;1.09;100.00
68580;BME280;55555;52.136;5.424;2022-12-11T02:04:56;101352.19;;;1.10;100.00
68580;BME280;55555;52.136;5.424;2022-12-11T02:07:23;101354.78;;;1.08;100.00
68580;BME280;55555;52.136;5.424;2022-12-11T02:09:50;101344.31;;;1.10;100.00
68580;BME280;55555;52.136;5.424;2022-12-11T02:12:25;101340.84;;;1.11;100.00
68580;BME280;55555;52.136;5.424;2022-12-11T02:17:47;101333.88;;;1.13;100.00
68580;BME280;55555;52.136;5.424;2022-12-11T02:26:16;101331.28;;;1.15;100.00
68580;BME280;55555;52.136;5.424;2022-12-11T02:28:58;101322.56;;;1.16;100.00
68580;BME280;55555;52.136;5.424;2022-12-11T02:31:37;101325.22;;;1.17;100.00
68580;BME280;55555;52.136;5.424;2022-12-11T02:34:28;101318.25;;;1.18;100.00
68580;BME280;55555;52.136;5.424;2022-12-11T02:37:13;101328.72;;;1.19;100.00
68580;BME280;55555;52.136;5.424;2022-12-11T02:39:44;101318.22;;;1.19;100.00
68580;BME280;55555;52.136;5.424;2022-12-11T02:42:13;101318.22;;;1.19;100.00
68580;BME280;55555;52.136;5.424;2022-12-11T02:44:45;101318.25;;;1.21;100.00
68580;BME280;55555;52.136;5.424;2022-12-11T02:47:15;101319.13;;;1.21;100.00
68580;BME280;55555;52.136;5.424;2022-12-11T02:49:47;101315.66;;;1.22;100.00
68580;BME280;55555;52.136;5.424;2022-12-11T02:52:19;101313.91;;;1.23;100.00
68580;BME280;55555;52.136;5.424;2022-12-11T02:54:50;101309.56;;;1.25;100.00
68580;BME280;55555;52.136;5.424;2022-12-11T02:57:34;101331.44;;;1.27;100.00
68580;BME280;55555;52.136;5.424;2022-12-11T03:00:07;101325.34;;;1.28;100.00
68580;BME280;55555;52.136;5.424;2022-12-11T03:02:35;101316.59;;;1.27;100.00
68580;BME280;55555;52.136;5.424;2022-12-11T03:05:04;101324.47;;;1.30;100.00
68580;BME280;55555;52.136;5.424;2022-12-11T03:07:33;101323.63;;;1.31;100.00
68580;BME280;55555;52.136;5.424;2022-12-11T03:10:04;101318.38;;;1.30;100.00
68580;BME280;55555;52.136;5.424;2022-12-11T03:12:36;101317.50;;;1.31;100.00
68580;BME280;55555;52.136;5.424;2022-12-11T03:15:08;101317.56;;;1.35;100.00
68580;BME280;55555;52.136;5.424;2022-12-11T03:21:16;101326.31;;;1.37;100.00
68580;BME280;55555;52.136;5.424;2022-12-11T03:24:09;101323.69;;;1.37;100.00
68580;BME280;55555;52.136;5.424;2022-12-11T03:26:43;101328.03;;;1.35;100.00
68580;BME280;55555;52.136;5.424;2022-12-11T03:29:30;101330.69;;;1.38;100.00
68580;BME280;55555;52.136;5.424;2022-12-11T03:32:30;101327.19;;;1.38;100.00
68580;BME280;55555;52.136;5.424;2022-12-11T03:35:03;101326.34;;;1.42;100.00
68580;BME280;55555;52.136;5.424;2022-12-11T03:37:40;101323.72;;;1.42;100.00
68580;BME280;55555;52.136;5.424;2022-12-11T03:40:15;101322.88;;;1.43;100.00
68580;BME280;55555;52.136;5.424;2022-12-11T03:42:46;101323.72;;;1.42;100.00
68580;BME280;55555;52.136;5.424;2022-12-11T03:45:18;101323.75;;;1.43;100.00
68580;BME280;55555;52.136;5.424;2022-12-11T03:47:46;101324.63;;;1.44;100.00
68580;BME280;55555;52.136;5.424;2022-12-11T03:50:16;101322.03;;;1.45;100.00
68580;BME280;55555;52.136;5.424;2022-12-11T03:52:45;101318.53;;;1.46;100.00
68580;BME280;55555;52.136;5.424;2022-12-11T03:55:15;101325.53;;;1.46;100.00
68580;BME280;55555;52.136;5.424;2022-12-11T03:57:43;101312.41;;;1.44;100.00
68580;BME280;55555;52.136;5.424;2022-12-11T04:00:13;101308.88;;;1.42;100.00
68580;BME280;55555;52.136;5.424;2022-12-11T04:02:43;101306.25;;;1.42;100.00
68580;BME280;55555;52.136;5.424;2022-12-11T04:05:40;101312.44;;;1.46;100.00
68580;BME280;55555;52.136;5.424;2022-12-11T04:08:12;101309.78;;;1.44;100.00
68580;BME280;55555;52.136;5.424;2022-12-11T04:10:39;101320.28;;;1.44;100.00
68580;BME280;55555;52.136;5.424;2022-12-11T04:13:07;101318.50;;;1.43;100.00
68580;BME280;55555;52.136;5.424;2022-12-11T04:15:35;101310.63;;;1.43;100.00
68580;BME280;55555;52.136;5.424;2022-12-11T04:18:03;101307.13;;;1.43;100.00
68580;BME280;55555;52.136;5.424;2022-12-11T04:21:00;101303.63;;;1.41;100.00
68580;BME280;55555;52.136;5.424;2022-12-11T04:23:46;101310.66;;;1.45;100.00
68580;BME280;55555;52.136;5.424;2022-12-11T04:26:32;101308.06;;;1.46;100.00
68580;BME280;55555;52.136;5.424;2022-12-11T04:28:59;101302.81;;;1.45;100.00
68580;BME280;55555;52.136;5.424;2022-12-11T04:31:26;101301.06;;;1.45;100.00
68580;BME280;55555;52.136;5.424;2022-12-11T04:33:55;101294.06;;;1.46;100.00
68580;BME280;55555;52.136;5.424;2022-12-11T04:36:22;101299.28;;;1.44;100.00
68580;BME280;55555;52.136;5.424;2022-12-11T04:38:49;101289.69;;;1.45;100.00
68580;BME280;55555;52.136;5.424;2022-12-11T04:41:17;101291.41;;;1.43;100.00
68580;BME280;55555;52.136;5.424;2022-12-11T04:43:44;101294.09;;;1.48;100.00
68580;BME280;55555;52.136;5.424;2022-12-11T04:46:17;101293.19;;;1.45;100.00
68580;BME280;55555;52.136;5.424;2022-12-11T04:48:46;101289.69;;;1.45;100.00
68580;BME280;55555;52.136;5.424;2022-12-11T04:51:21;101287.06;;;1.43;100.00
68580;BME280;55555;52.136;5.424;2022-12-11T04:53:48;101280.91;;;1.40;100.00
68580;BME280;55555;52.136;5.424;2022-12-11T04:56:15;101281.81;;;1.43;100.00
68580;BME280;55555;52.136;5.424;2022-12-11T04:58:43;101287.06;;;1.45;100.00
68580;BME280;55555;52.136;5.424;2022-12-11T05:01:13;101288.81;;;1.44;100.00
68580;BME280;55555;52.136;5.424;2022-12-11T05:03:41;101283.53;;;1.40;100.00
68580;BME280;55555;52.136;5.424;2022-12-11T05:06:09;101295.78;;;1.42;100.00
68580;BME280;55555;52.136;5.424;2022-12-11T05:08:38;101295.78;;;1.44;100.00
68580;BME280;55555;52.136;5.424;2022-12-11T05:11:09;101299.25;;;1.41;100.00
68580;BME280;55555;52.136;5.424;2022-12-11T05:13:37;101301.91;;;1.43;100.00
68580;BME280;55555;52.136;5.424;2022-12-11T05:16:06;101305.38;;;1.42;100.00
68580;BME280;55555;52.136;5.424;2022-12-11T05:18:36;101296.63;;;1.38;100.00
68580;BME280;55555;52.136;5.424;2022-12-11T05:21:06;101299.28;;;1.40;100.00
68580;BME280;55555;52.136;5.424;2022-12-11T05:23:35;101299.28;;;1.40;100.00
68580;BME280;55555;52.136;5.424;2022-12-11T05:26:15;101295.78;;;1.42;100.00
68580;BME280;55555;52.136;5.424;2022-12-11T05:28:44;101294.91;;;1.40;100.00
68580;BME280;55555;52.136;5.424;2022-12-11T05:31:14;101294.91;;;1.40;100.00
68580;BME280;55555;52.136;5.424;2022-12-11T05:33:43;101289.63;;;1.37;100.00
68580;BME280;55555;52.136;5.424;2022-12-11T05:38:49;101278.31;;;1.40;100.00
68580;BME280;55555;52.136;5.424;2022-12-11T05:41:19;101279.16;;;1.42;100.00
68580;BME280;55555;52.136;5.424;2022-12-11T05:43:47;101280.03;;;1.39;100.00
68580;BME280;55555;52.136;5.424;2022-12-11T05:46:19;101280.03;;;1.38;100.00
68580;BME280;55555;52.136;5.424;2022-12-11T05:48:50;101279.94;;;1.32;100.00
68580;BME280;55555;52.136;5.424;2022-12-11T05:51:19;101278.19;;;1.32;100.00
68580;BME280;55555;52.136;5.424;2022-12-11T05:53:48;101278.25;;;1.35;100.00
68580;BME280;55555;52.136;5.424;2022-12-11T05:56:25;101282.59;;;1.35;100.00
68580;BME280;55555;52.136;5.424;2022-12-11T05:58:54;101283.47;;;1.35;100.00
68580;BME280;55555;52.136;5.424;2022-12-11T06:01:25;101286.09;;;1.35;100.00
68580;BME280;55555;52.136;5.424;2022-12-11T06:03:55;101280.78;;;1.28;100.00
68580;BME280;55555;52.136;5.424;2022-12-11T06:06:23;101269.50;;;1.36;100.00
68580;BME280;55555;52.136;5.424;2022-12-11T06:08:53;101270.31;;;1.29;100.00
68580;BME280;55555;52.136;5.424;2022-12-11T06:11:22;101265.94;;;1.31;100.00
68580;BME280;55555;52.136;5.424;2022-12-11T06:13:50;101277.28;;;1.30;100.00
68580;BME280;55555;52.136;5.424;2022-12-11T06:16:18;101271.19;;;1.28;100.00
68580;BME280;55555;52.136;5.424;2022-12-11T06:18:46;101279.94;;;1.29;100.00
68580;BME280;55555;52.136;5.424;2022-12-11T06:21:25;101270.31;;;1.28;100.00
68580;BME280;55555;52.136;5.424;2022-12-11T06:23:57;101271.16;;;1.25;100.00
68580;BME280;55555;52.136;5.424;2022-12-11T06:26:25;101271.16;;;1.25;100.00
68580;BME280;55555;52.136;5.424;2022-12-11T06:28:52;101274.63;;;1.24;100.00
68580;BME280;55555;52.136;5.424;2022-12-11T06:31:20;101274.66;;;1.27;100.00
68580;BME280;55555;52.136;5.424;2022-12-11T06:33:47;101272.91;;;1.26;100.00
68580;BME280;55555;52.136;5.424;2022-12-11T06:36:21;101276.38;;;1.24;100.00
68580;BME280;55555;52.136;5.424;2022-12-11T06:38:49;101281.66;;;1.27;100.00
68580;BME280;55555;52.136;5.424;2022-12-11T06:41:17;101271.16;;;1.25;100.00
68580;BME280;55555;52.136;5.424;2022-12-11T06:43:44;101278.09;;;1.23;100.00
68580;BME280;55555;52.136;5.424;2022-12-11T06:46:16;101279.94;;;1.29;100.00
68580;BME280;55555;52.136;5.424;2022-12-11T06:48:45;101286.88;;;1.25;100.00
68580;BME280;55555;52.136;5.424;2022-12-11T06:51:15;101288.66;;;1.31;100.00
68580;BME280;55555;52.136;5.424;2022-12-11T06:53:49;101292.19;;;1.30;100.00
68580;BME280;55555;52.136;5.424;2022-12-11T06:56:20;101297.38;;;1.27;100.00
68580;BME280;55555;52.136;5.424;2022-12-11T06:58:48;101293.00;;;1.26;100.00
68580;BME280;55555;52.136;5.424;2022-12-11T07:01:26;101296.44;;;1.23;100.00
68580;BME280;55555;52.136;5.424;2022-12-11T07:03:58;101290.34;;;1.24;100.00
68580;BME280;55555;52.136;5.424;2022-12-11T07:06:26;101293.88;;;1.26;100.00
68580;BME280;55555;52.136;5.424;2022-12-11T07:08:54;101292.16;;;1.28;100.00
68580;BME280;55555;52.136;5.424;2022-12-11T07:11:22;101293.00;;;1.26;100.00
68580;BME280;55555;52.136;5.424;2022-12-11T07:13:49;101294.72;;;1.24;100.00
68580;BME280;55555;52.136;5.424;2022-12-11T07:16:17;101302.59;;;1.25;100.00
68580;BME280;55555;52.136;5.424;2022-12-11T07:18:49;101300.75;;;1.20;100.00
68580;BME280;55555;52.136;5.424;2022-12-11T07:21:18;101294.72;;;1.24;100.00
68580;BME280;55555;52.136;5.424;2022-12-11T07:23:47;101293.78;;;1.19;100.00
68580;BME280;55555;52.136;5.424;2022-12-11T07:26:17;101299.03;;;1.19;100.00
68580;BME280;55555;52.136;5.424;2022-12-11T07:28:45;101297.25;;;1.19;100.00
68580;BME280;55555;52.136;5.424;2022-12-11T07:31:20;101305.16;;;1.21;100.00
68580;BME280;55555;52.136;5.424;2022-12-11T07:33:59;101301.66;;;1.22;100.00
68580;BME280;55555;52.136;5.424;2022-12-11T07:36:31;101300.81;;;1.23;100.00
68580;BME280;55555;52.136;5.424;2022-12-11T07:38:59;101307.78;;;1.21;100.00
68580;BME280;55555;52.136;5.424;2022-12-11T07:41:27;101310.44;;;1.24;100.00
68580;BME280;55555;52.136;5.424;2022-12-11T07:43:54;101312.97;;;1.16;99.58
68580;BME280;55555;52.136;5.424;2022-12-11T07:46:24;101309.56;;;1.23;100.00
68580;BME280;55555;52.136;5.424;2022-12-11T07:48:53;101305.13;;;1.18;99.92
68580;BME280;55555;52.136;5.424;2022-12-11T07:51:28;101307.75;;;1.19;99.85
68580;BME280;55555;52.136;5.424;2022-12-11T07:53:59;101309.47;;;1.16;99.58
68580;BME280;55555;52.136;5.424;2022-12-11T07:56:29;101312.13;;;1.20;100.00
68580;BME280;55555;52.136;5.424;2022-12-11T07:59:01;101323.50;;;1.21;100.00
68580;BME280;55555;52.136;5.424;2022-12-11T08:01:31;101318.28;;;1.22;100.00
68580;BME280;55555;52.136;5.424;2022-12-11T08:04:02;101323.47;;;1.19;100.00
68580;BME280;55555;52.136;5.424;2022-12-11T08:06:32;101318.22;;;1.19;100.00
68580;BME280;55555;52.136;5.424;2022-12-11T08:09:04;101321.72;;;1.20;100.00
68580;BME280;55555;52.136;5.424;2022-12-11T08:11:33;101319.06;;;1.15;100.00
68580;BME280;55555;52.136;5.424;2022-12-11T08:14:01;101322.59;;;1.17;99.99
68580;BME280;55555;52.136;5.424;2022-12-11T08:16:28;101319.09;;;1.17;100.00
68580;BME280;55555;52.136;5.424;2022-12-11T08:18:56;101320.81;;;1.15;100.00
68580;BME280;55555;52.136;5.424;2022-12-11T08:21:25;101310.34;;;1.16;100.00
68580;BME280;55555;52.136;5.424;2022-12-11T08:23:53;101321.69;;;1.15;99.84
68580;BME280;55555;52.136;5.424;2022-12-11T08:26:23;101314.75;;;1.17;100.00
68580;BME280;55555;52.136;5.424;2022-12-11T08:28:53;101316.44;;;1.14;99.72
68580;BME280;55555;52.136;5.424;2022-12-11T08:31:21;101327.81;;;1.16;100.00
68580;BME280;55555;52.136;5.424;2022-12-11T08:33:48;101322.56;;;1.14;100.00
68580;BME280;55555;52.136;5.424;2022-12-11T08:36:18;101325.13;;;1.11;99.75
68580;BME280;55555;52.136;5.424;2022-12-11T08:38:48;101319.88;;;1.11;99.97
68580;BME280;55555;52.136;5.424;2022-12-11T08:41:24;101318.16;;;1.12;100.00
68580;BME280;55555;52.136;5.424;2022-12-11T08:43:54;101322.53;;;1.13;99.96
68580;BME280;55555;52.136;5.424;2022-12-11T08:46:25;101325.16;;;1.14;100.00
68580;BME280;55555;52.136;5.424;2022-12-11T08:48:54;101319.88;;;1.11;100.00
68580;BME280;55555;52.136;5.424;2022-12-11T08:51:24;101322.47;;;1.09;100.00
68580;BME280;55555;52.136;5.424;2022-12-11T08:53:56;101318.97;;;1.06;99.81
68580;BME280;55555;52.136;5.424;2022-12-11T08:56:26;101314.63;;;1.09;99.98
68580;BME280;55555;52.136;5.424;2022-12-11T08:58:54;101313.75;;;1.07;99.94
68580;BME280;55555;52.136;5.424;2022-12-11T09:01:23;101313.75;;;1.09;99.71
68580;BME280;55555;52.136;5.424;2022-12-11T09:03:53;101312.84;;;1.05;99.52
68580;BME280;55555;52.136;5.424;2022-12-11T09:06:22;101311.16;;;1.10;100.00
68580;BME280;55555;52.136;5.424;2022-12-11T09:08:52;101318.97;;;1.06;99.75
68580;BME280;55555;52.136;5.424;2022-12-11T09:11:24;101305.88;;;1.09;99.64
68580;BME280;55555;52.136;5.424;2022-12-11T09:13:53;101306.69;;;1.03;99.00
68580;BME280;55555;52.136;5.424;2022-12-11T09:16:22;101310.25;;;1.07;99.36
68580;BME280;55555;52.136;5.424;2022-12-11T09:18:51;101301.56;;;1.13;99.55
68580;BME280;55555;52.136;5.424;2022-12-11T09:21:22;101292.00;;;1.16;99.91
68580;BME280;55555;52.136;5.424;2022-12-11T09:23:52;101292.94;;;1.21;99.94
68580;BME280;55555;52.136;5.424;2022-12-11T09:26:21;101295.53;;;1.20;99.43
68580;BME280;55555;52.136;5.424;2022-12-11T09:28:48;101296.50;;;1.26;100.00
68580;BME280;55555;52.136;5.424;2022-12-11T09:31:22;101296.44;;;1.22;100.00
68580;BME280;55555;52.136;5.424;2022-12-11T09:33:53;101295.63;;;1.27;100.00
68580;BME280;55555;52.136;5.424;2022-12-11T09:36:22;101296.53;;;1.29;100.00
68580;BME280;55555;52.136;5.424;2022-12-11T09:38:50;101293.88;;;1.28;99.21
68580;BME280;55555;52.136;5.424;2022-12-11T09:44:01;101298.28;;;1.29;99.08
68580;BME280;55555;52.136;5.424;2022-12-11T09:46:41;101294.84;;;1.36;99.93
68580;BME280;55555;52.136;5.424;2022-12-11T09:49:30;101295.75;;;1.38;99.51
68580;BME280;55555;52.136;5.424;2022-12-11T09:52:09;101283.47;;;1.34;98.98
68580;BME280;55555;52.136;5.424;2022-12-11T09:55:18;101284.44;;;1.45;99.92
68580;BME280;55555;52.136;5.424;2022-12-11T09:57:53;101287.97;;;1.47;99.41
68580;BME280;55555;52.136;5.424;2022-12-11T10:06:39;101289.78;;;1.54;99.49
68580;BME280;55555;52.136;5.424;2022-12-11T10:18:28;101289.84;;;1.63;99.89
68580;BME280;55555;52.136;5.424;2022-12-11T10:21:00;101283.72;;;1.60;99.02
68580;BME280;55555;52.136;5.424;2022-12-11T10:23:35;101283.72;;;1.63;99.22
68580;BME280;55555;52.136;5.424;2022-12-11T10:26:08;101280.34;;;1.71;99.12
68580;BME280;55555;52.136;5.424;2022-12-11T10:28:38;101283.00;;;1.76;99.90
68580;BME280;55555;52.136;5.424;2022-12-11T10:31:16;101278.63;;;1.78;100.00
68580;BME280;55555;52.136;5.424;2022-12-11T10:34:12;101281.25;;;1.76;99.86
68580;BME280;55555;52.136;5.424;2022-12-11T10:36:44;101281.22;;;1.72;99.08
68580;BME280;55555;52.136;5.424;2022-12-11T10:39:13;101278.59;;;1.75;98.47
68580;BME280;55555;52.136;5.424;2022-12-11T10:41:48;101275.13;;;1.76;98.91
68580;BME280;55555;52.136;5.424;2022-12-11T10:44:29;101278.63;;;1.78;98.70
68580;BME280;55555;52.136;5.424;2022-12-11T10:47:04;101270.81;;;1.82;98.98
68580;BME280;55555;52.136;5.424;2022-12-11T10:49:37;101279.50;;;1.75;99.06
68580;BME280;55555;52.136;5.424;2022-12-11T10:52:21;101281.22;;;1.73;99.14
68580;BME280;55555;52.136;5.424;2022-12-11T10:55:01;101267.34;;;1.83;99.50
68580;BME280;55555;52.136;5.424;2022-12-11T10:57:36;101265.59;;;1.87;99.63
68580;BME280;55555;52.136;5.424;2022-12-11T11:00:24;101260.41;;;1.92;99.57
68580;BME280;55555;52.136;5.424;2022-12-11T11:03:01;101263.84;;;1.88;98.96
68580;BME280;55555;52.136;5.424;2022-12-11T11:05:32;101264.75;;;1.90;99.00
68580;BME280;55555;52.136;5.424;2022-12-11T11:08:15;101263.06;;;1.95;100.00
68580;BME280;55555;52.136;5.424;2022-12-11T11:10:54;101263.03;;;1.96;99.45
68580;BME280;55555;52.136;5.424;2022-12-11T11:13:25;101259.56;;;1.94;99.28
68580;BME280;55555;52.136;5.424;2022-12-11T11:18:31;101253.50;;;2.03;99.82
68580;BME280;55555;52.136;5.424;2022-12-11T11:20:59;101251.72;;;2.00;99.16
68580;BME280;55555;52.136;5.424;2022-12-11T11:23:27;101253.53;;;2.09;100.00
68580;BME280;55555;52.136;5.424;2022-12-11T11:26:05;101239.50;;;2.02;100.00
68580;BME280;55555;52.136;5.424;2022-12-11T11:28:35;101241.25;;;2.03;99.65
68580;BME280;55555;52.136;5.424;2022-12-11T11:31:10;101242.13;;;2.04;99.78
68580;BME280;55555;52.136;5.424;2022-12-11T11:34:13;101236.91;;;2.05;99.14
68580;BME280;55555;52.136;5.424;2022-12-11T11:36:57;101240.41;;;2.09;98.69
68580;BME280;55555;52.136;5.424;2022-12-11T11:39:35;101242.16;;;2.08;99.05
68580;BME280;55555;52.136;5.424;2022-12-11T11:44:46;101235.16;;;2.10;99.07
68580;BME280;55555;52.136;5.424;2022-12-11T11:47:44;101243.06;;;2.12;99.20
68580;BME280;55555;52.136;5.424;2022-12-11T11:50:34;101235.19;;;2.13;98.31
68580;BME280;55555;52.136;5.424;2022-12-11T11:53:11;101228.19;;;2.17;99.35
68580;BME280;55555;52.136;5.424;2022-12-11T11:56:04;101223.84;;;2.16;98.55
68580;BME280;55555;52.136;5.424;2022-12-11T11:58:42;101224.72;;;2.18;98.83
68580;BME280;55555;52.136;5.424;2022-12-11T12:01:17;101222.97;;;2.18;98.66
68580;BME280;55555;52.136;5.424;2022-12-11T12:03:46;101232.59;;;2.21;99.19
68580;BME280;55555;52.136;5.424;2022-12-11T12:06:33;101223.84;;;2.19;99.00
68580;BME280;55555;52.136;5.424;2022-12-11T12:15:34;101224.72;;;2.19;98.98
68580;BME280;55555;52.136;5.424;2022-12-11T12:18:45;101222.13;;;2.24;99.72
68580;BME280;55555;52.136;5.424;2022-12-11T12:21:37;101221.19;;;2.17;98.58
68580;BME280;55555;52.136;5.424;2022-12-11T12:24:16;101223.00;;;2.28;99.28
68580;BME280;55555;52.136;5.424;2022-12-11T12:26:56;101218.63;;;2.24;99.02
68580;BME280;55555;52.136;5.424;2022-12-11T12:35:35;101223.00;;;2.28;98.33
68580;BME280;55555;52.136;5.424;2022-12-11T12:38:16;101220.44;;;2.32;99.09
68580;BME280;55555;52.136;5.424;2022-12-11T12:46:50;101214.25;;;2.24;98.70
68580;BME280;55555;52.136;5.424;2022-12-11T12:49:48;101209.03;;;2.30;98.94
68580;BME280;55555;52.136;5.424;2022-12-11T12:52:20;101216.88;;;2.23;98.21
68580;BME280;55555;52.136;5.424;2022-12-11T12:55:17;101208.97;;;2.21;98.39
68580;BME280;55555;52.136;5.424;2022-12-11T12:57:55;101213.41;;;2.25;98.91
68580;BME280;55555;52.136;5.424;2022-12-11T13:00:38;101214.22;;;2.21;98.17
68580;BME280;55555;52.136;5.424;2022-12-11T13:03:16;101216.84;;;2.21;98.17
68580;BME280;55555;52.136;5.424;2022-12-11T13:06:05;101205.53;;;2.27;98.78
68580;BME280;55555;52.136;5.424;2022-12-11T13:08:43;101210.75;;;2.24;99.61
68580;BME280;55555;52.136;5.424;2022-12-11T13:11:15;101208.13;;;2.22;98.31
68580;BME280;55555;52.136;5.424;2022-12-11T13:14:00;101216.84;;;2.21;98.22
68580;BME280;55555;52.136;5.424;2022-12-11T13:16:41;101213.34;;;2.16;98.04
68580;BME280;55555;52.136;5.424;2022-12-11T13:21:57;101214.22;;;2.18;98.43
68580;BME280;55555;52.136;5.424;2022-12-11T13:24:31;101218.59;;;2.16;98.90
68580;BME280;55555;52.136;5.424;2022-12-11T13:27:22;101216.88;;;2.23;99.32
68580;BME280;55555;52.136;5.424;2022-12-11T13:32:41;101217.72;;;2.20;99.31
68580;BME280;55555;52.136;5.424;2022-12-11T13:35:16;101217.72;;;2.20;99.85
68580;BME280;55555;52.136;5.424;2022-12-11T13:37:45;101222.97;;;2.15;99.10
68580;BME280;55555;52.136;5.424;2022-12-11T13:40:18;101222.03;;;2.09;98.63
68580;BME280;55555;52.136;5.424;2022-12-11T13:43:03;101222.94;;;2.12;98.60
68580;BME280;55555;52.136;5.424;2022-12-11T13:45:49;101221.22;;;2.16;98.68
68580;BME280;55555;52.136;5.424;2022-12-11T13:48:26;101223.81;;;2.13;98.15
68580;BME280;55555;52.136;5.424;2022-12-11T13:50:55;101222.94;;;2.17;98.66
68580;BME280;55555;52.136;5.424;2022-12-11T13:53:23;101222.06;;;2.13;98.97
68580;BME280;55555;52.136;5.424;2022-12-11T13:58:37;101223.81;;;2.13;98.87
68580;BME280;55555;52.136;5.424;2022-12-11T14:04:10;101228.19;;;2.14;99.42
68580;BME280;55555;52.136;5.424;2022-12-11T14:06:39;101232.56;;;2.12;99.12
68580;BME280;55555;52.136;5.424;2022-12-11T14:09:07;101231.69;;;2.13;99.34
68580;BME280;55555;52.136;5.424;2022-12-11T14:11:36;101241.25;;;2.08;98.34
68580;BME280;55555;52.136;5.424;2022-12-11T14:15:02;101233.41;;;2.09;99.14
68580;BME280;55555;52.136;5.424;2022-12-11T14:17:28;101224.63;;;2.06;99.01
68580;BME280;55555;52.136;5.424;2022-12-11T14:19:59;101229.88;;;2.03;98.40
68580;BME280;55555;52.136;5.424;2022-12-11T14:22:29;101228.16;;;2.05;99.01
68580;BME280;55555;52.136;5.424;2022-12-11T14:24:59;101235.13;;;2.03;98.47
68580;BME280;55555;52.136;5.424;2022-12-11T14:27:29;101224.59;;;2.01;98.53
68580;BME280;55555;52.136;5.424;2022-12-11T14:29:56;101233.38;;;2.03;99.55
68580;BME280;55555;52.136;5.424;2022-12-11T14:32:27;101228.94;;;1.98;99.50